DW8230 Weather Reports


Display with metric or nautical units.
time (UTC)temp
F
wind
direction
speed
MPH
gust
MPH
rain 1hr
in
rain 24hr
in
rain mn
in
humidity
%
barometer
mb
20200402071706 60 360 1.0 3.0 0.00 0.00 0.00 30 1011.0
20200402070404 60 360 0.0 1.0 0.00 0.00 0.00 30 1011.0
20200402061655 60 360 0.0 2.0 0.00 0.00 0.00 32 1010.9
20200402060222 60 360 0.0 2.0 0.00 0.00 0.00 32 1010.8
20200402054732 61 360 0.0 0.0 0.00 0.00 0.00 30 1010.7
20200402051632 61 360 0.0 1.0 0.00 0.00 0.00 31 1010.6
20200402050220 62 360 0.0 1.0 0.00 0.00 0.00 30 1010.4
20200402044605 63 360 0.0 1.0 0.00 0.00 0.00 28 1010.2
20200402041654 65 360 0.0 1.0 0.00 0.00 0.00 23 1009.9
20200402040117 66 360 0.0 2.0 0.00 0.00 0.00 23 1009.8
20200402034659 67 360 0.0 4.0 0.00 0.00 0.00 22 1009.7
20200402031615 70 360 1.0 4.0 0.00 0.00 0.00 19 1009.3
20200402030220 72 360 1.0 4.0 0.00 0.00 0.00 18 1008.9
20200402024614 72 360 0.0 6.0 0.00 0.00 0.00 17 1008.6
20200402021721 74 360 2.0 8.0 0.00 0.00 0.00 16 1008.2
20200402020146 75 360 1.0 9.0 0.00 0.00 0.00 15 1007.9
20200402014606 76 360 2.0 8.0 0.00 0.00 0.00 15 1007.8
20200402011630 78 360 5.0 10.0 0.00 0.00 0.00 14 1007.7
20200402010118 80 360 6.0 13.0 0.00 0.00 0.00 13 1007.7
20200402004627 81 360 4.0 13.0 0.00 0.00 0.00 13 1007.5
20200402001634 82 360 8.0 16.0 0.00 0.00 0.00 13 1007.2
20200402000325 83 360 5.0 16.0 0.00 0.00 0.00 13 1007.3
20200401234619 83 360 5.0 15.0 0.00 0.00 0.00 12 1007.3
20200401231817 84 360 5.0 14.0 0.00 0.00 0.00 13 1007.1
20200401230131 85 360 5.0 15.0 0.00 0.00 0.00 13 1007.1
20200401224648 85 360 2.0 12.0 0.00 0.00 0.00 12 1007.3
20200401221652 85 360 4.0 15.0 0.00 0.00 0.00 12 1007.3
20200401220133 85 360 1.0 12.0 0.00 0.00 0.00 11 1007.4
20200401214712 85 360 5.0 13.0 0.00 0.00 0.00 12 1007.4
20200401211648 86 360 5.0 10.0 0.00 0.00 0.00 11 1007.6
20200401210114 85 360 3.0 12.0 0.00 0.00 0.00 11 1007.8
20200401204648 84 360 2.0 8.0 0.00 0.00 0.00 11 1008.1
20200401201552 84 360 3.0 10.0 0.00 0.00 0.00 11 1008.4
20200401200106 83 360 3.0 10.0 0.00 0.00 0.00 12 1009.0
20200401194641 82 360 1.0 6.0 0.00 0.00 0.00 13 1009.1
20200401191553 80 360 0.0 5.0 0.00 0.00 0.00 16 1009.7
20200401190057 78 360 3.0 8.0 0.00 0.00 0.00 14 1010.2
20200401184550 78 360 1.0 6.0 0.00 0.00 0.00 16 1010.4
20200401181536 77 360 0.0 5.0 0.00 0.00 0.00 17 1010.8
20200401180051 77 360 0.0 5.0 0.00 0.00 0.00 17 1011.0
20200401174548 77 360 1.0 7.0 0.00 0.00 0.00 18 1011.2
20200401171557 76 360 3.0 6.0 0.00 0.00 0.00 19 1011.3
20200401170049 76 360 0.0 4.0 0.00 0.00 0.00 21 1011.3
20200401164521 75 360 2.0 4.0 0.00 0.00 0.00 23 1011.5
20200401161520 72 360 0.0 4.0 0.00 0.00 0.00 27 1011.5
20200401160012 70 360 0.0 3.0 0.00 0.00 0.00 28 1011.5
20200401154502 68 360 0.0 5.0 0.00 0.00 0.00 33 1011.7
20200401151656 64 360 0.0 0.0 0.00 0.00 0.00 39 1011.4
20200401150150 62 360 0.0 2.0 0.00 0.00 0.00 40 1011.3
20200401144626 60 360 0.0 2.0 0.00 0.00 0.00 44 1011.0
20200401141612 54 360 0.0 0.0 0.00 0.00 0.00 57 1011.0
20200401140124 52 360 0.0 0.0 0.00 0.00 0.00 59 1010.7
20200401134632 52 360 0.0 0.0 0.00 0.00 0.00 57 1010.6
20200401131622 52 360 0.0 0.0 0.00 0.00 0.00 57 1010.6
20200401130054 52 360 0.0 0.0 0.00 0.00 0.00 54 1010.5
20200401124618 52 360 0.0 0.0 0.00 0.00 0.00 57 1010.6
20200401121557 52 360 0.0 1.0 0.00 0.00 0.00 59 1010.4
20200401120041 54 360 1.0 2.0 0.00 0.00 0.00 58 1010.3
20200401114551 54 360 0.0 0.0 0.00 0.00 0.00 54 1010.4
20200401111617 56 360 0.0 2.0 0.00 0.00 0.00 54 1010.8
20200401110044 56 360 0.0 4.0 0.00 0.00 0.00 52 1011.0
20200401104543 56 360 0.0 3.0 0.00 0.00 0.00 52 1011.2
20200401101616 55 360 0.0 0.0 0.00 0.00 0.00 53 1011.1
20200401100046 55 360 0.0 0.0 0.00 0.00 0.00 57 1011.2
20200401094608 54 360 0.0 0.0 0.00 0.00 0.00 59 1011.2
20200401090033 57 360 0.0 0.0 0.00 0.00 0.00 50 1011.6
20200401084537 56 360 0.0 0.0 0.00 0.00 0.00 53 1011.8
20200401081523 57 360 0.0 1.0 0.00 0.00 0.00 55 1012.1
20200401080041 58 360 0.0 0.0 0.00 0.00 0.00 51 1012.3
20200401074526 59 360 0.0 0.0 0.00 0.00 0.00 48 1012.5